createdAt,value
2018-12-20T00:00:45.612Z,0.50
2018-12-20T00:03:14.337Z,0.40
2018-12-20T00:05:43.115Z,0.50
2018-12-20T00:08:11.788Z,0.50
2018-12-20T00:10:40.446Z,0.40
2018-12-20T00:13:09.302Z,0.20
2018-12-20T00:15:37.955Z,0.20
2018-12-20T00:18:06.700Z,0.20
2018-12-20T00:20:35.312Z,0.20
2018-12-20T00:23:04.059Z,0.10
2018-12-20T00:25:33.367Z,0.20
2018-12-20T00:28:01.963Z,0.30
2018-12-20T00:30:30.824Z,0.30
2018-12-20T00:32:59.601Z,0.30
2018-12-20T00:35:28.276Z,0.30
2018-12-20T00:37:56.863Z,0.30
2018-12-20T00:40:25.620Z,0.40
2018-12-20T00:42:54.422Z,0.50
2018-12-20T00:45:23.051Z,0.60
2018-12-20T00:47:51.607Z,0.60
2018-12-20T00:50:20.167Z,0.50
2018-12-20T00:52:48.688Z,0.50
2018-12-20T00:55:17.249Z,0.40
2018-12-20T00:57:45.818Z,0.40
2018-12-20T01:00:14.947Z,0.30
2018-12-20T01:02:43.688Z,0.30
2018-12-20T01:05:12.578Z,0.20
2018-12-20T01:07:41.143Z,0.10
2018-12-20T01:10:09.850Z,0.10
2018-12-20T01:12:38.538Z,0.20
2018-12-20T01:15:07.398Z,0.30
2018-12-20T01:17:38.853Z,0.30
2018-12-20T01:20:09.601Z,0.30
2018-12-20T01:22:38.442Z,0.30
2018-12-20T01:25:07.460Z,0.30
2018-12-20T01:27:36.268Z,0.30
2018-12-20T01:30:06.314Z,0.40
2018-12-20T01:32:35.145Z,0.50
2018-12-20T01:35:04.250Z,0.60
2018-12-20T01:37:33.044Z,0.60
2018-12-20T01:40:01.705Z,0.60
2018-12-20T01:42:30.274Z,0.70
2018-12-20T01:44:58.990Z,0.70
2018-12-20T01:48:30.857Z,0.60
2018-12-20T01:51:01.041Z,0.60
2018-12-20T01:53:29.619Z,0.60
2018-12-20T01:55:58.447Z,0.60
2018-12-20T01:58:27.006Z,0.60
2018-12-20T02:00:55.821Z,0.60
2018-12-20T02:03:24.427Z,0.60
2018-12-20T02:05:52.978Z,0.60
2018-12-20T02:08:21.766Z,0.60
2018-12-20T02:10:50.400Z,0.60
2018-12-20T02:13:19.154Z,0.60
2018-12-20T02:15:47.894Z,0.60
2018-12-20T02:18:16.487Z,0.60
2018-12-20T02:20:45.161Z,0.60
2018-12-20T02:23:13.695Z,0.60
2018-12-20T02:25:42.378Z,0.70
2018-12-20T02:28:10.933Z,0.70
2018-12-20T02:30:39.515Z,0.60
2018-12-20T02:33:08.290Z,0.60
2018-12-20T02:35:37.061Z,0.60
2018-12-20T02:38:05.688Z,0.60
2018-12-20T02:40:34.665Z,0.60
2018-12-20T02:43:04.242Z,0.60
2018-12-20T02:45:33.083Z,0.60
2018-12-20T02:48:02.016Z,0.60
2018-12-20T02:50:31.522Z,0.60
2018-12-20T02:53:00.110Z,0.60
2018-12-20T02:55:28.783Z,0.60
2018-12-20T02:57:57.339Z,0.70
2018-12-20T03:00:25.924Z,0.70
2018-12-20T03:02:54.485Z,0.70
2018-12-20T03:05:23.259Z,0.60
2018-12-20T03:07:51.968Z,0.60
2018-12-20T03:10:20.787Z,0.60
2018-12-20T03:12:50.256Z,0.60
2018-12-20T03:15:20.070Z,0.60
2018-12-20T03:17:49.137Z,0.50
2018-12-20T03:20:17.677Z,0.50
2018-12-20T03:22:46.289Z,0.50
2018-12-20T03:25:14.870Z,0.50
2018-12-20T03:27:43.433Z,0.40
2018-12-20T03:30:12.302Z,0.40
2018-12-20T03:32:40.854Z,0.30
2018-12-20T03:35:09.792Z,0.30
2018-12-20T03:37:38.573Z,0.30
2018-12-20T03:40:07.548Z,0.30
2018-12-20T03:42:36.265Z,0.30
2018-12-20T03:45:05.314Z,0.30
2018-12-20T03:47:34.170Z,0.40
2018-12-20T03:50:03.063Z,0.50
2018-12-20T03:52:31.755Z,0.50
2018-12-20T03:55:00.395Z,0.50
2018-12-20T03:57:29.108Z,0.50
2018-12-20T03:59:57.744Z,0.50
2018-12-20T04:02:26.412Z,0.50
2018-12-20T04:04:55.081Z,0.40
2018-12-20T04:07:23.919Z,0.40
2018-12-20T04:09:52.563Z,0.40
2018-12-20T04:12:21.212Z,0.50
2018-12-20T04:14:50.235Z,0.50
2018-12-20T04:17:19.363Z,0.50
2018-12-20T04:19:48.000Z,0.60
2018-12-20T04:22:16.571Z,0.60
2018-12-20T04:24:45.092Z,0.50
2018-12-20T04:27:13.738Z,0.50
2018-12-20T04:29:42.353Z,0.50
2018-12-20T04:32:10.924Z,0.50
2018-12-20T04:34:39.544Z,0.50
2018-12-20T04:37:08.100Z,0.60
2018-12-20T04:39:36.952Z,0.50
2018-12-20T04:42:05.532Z,0.60
2018-12-20T04:44:34.120Z,0.60
2018-12-20T04:47:02.730Z,0.60
2018-12-20T04:49:31.399Z,0.70
2018-12-20T04:52:00.324Z,0.70
2018-12-20T04:54:29.057Z,0.70
2018-12-20T04:56:57.860Z,0.70
2018-12-20T04:59:26.444Z,0.70
2018-12-20T05:01:55.341Z,0.80
2018-12-20T05:04:24.700Z,0.80
2018-12-20T05:06:53.234Z,0.70
2018-12-20T05:09:21.828Z,0.60
2018-12-20T05:11:50.580Z,0.50
2018-12-20T05:14:19.208Z,0.50
2018-12-20T05:16:47.826Z,0.60
2018-12-20T05:19:16.363Z,0.60
2018-12-20T05:21:44.882Z,0.60
2018-12-20T05:24:13.511Z,0.60
2018-12-20T05:26:42.038Z,0.60
2018-12-20T05:29:10.650Z,0.60
2018-12-20T05:31:39.501Z,0.60
2018-12-20T05:34:08.313Z,0.60
2018-12-20T05:36:37.388Z,0.50
2018-12-20T05:39:07.605Z,0.60
2018-12-20T05:41:36.306Z,0.60
2018-12-20T05:44:05.020Z,0.60
2018-12-20T05:46:33.865Z,0.60
2018-12-20T05:49:02.629Z,0.60
2018-12-20T05:51:31.307Z,0.70
2018-12-20T05:53:59.893Z,0.70
2018-12-20T05:56:30.081Z,0.60
2018-12-20T05:58:58.618Z,0.50
2018-12-20T06:01:27.233Z,0.50
2018-12-20T06:03:55.854Z,0.50
2018-12-20T06:06:24.661Z,0.50
2018-12-20T06:08:53.269Z,0.50
2018-12-20T06:11:21.831Z,0.50
2018-12-20T06:13:50.390Z,0.60
2018-12-20T06:16:19.092Z,0.60
2018-12-20T06:18:47.733Z,0.70
2018-12-20T06:21:16.285Z,0.70
2018-12-20T06:23:44.825Z,0.70
2018-12-20T06:26:13.373Z,0.70
2018-12-20T06:28:42.126Z,0.70
2018-12-20T06:31:10.685Z,0.70
2018-12-20T06:33:40.993Z,0.70
2018-12-20T06:36:09.605Z,0.70
2018-12-20T06:38:38.146Z,0.70
2018-12-20T06:41:06.682Z,0.70
2018-12-20T06:43:35.941Z,0.80
2018-12-20T06:46:04.605Z,0.80
2018-12-20T06:48:33.220Z,0.80
2018-12-20T06:51:01.778Z,0.80
2018-12-20T06:53:30.329Z,0.80
2018-12-20T06:56:00.525Z,0.80
2018-12-20T06:58:29.098Z,0.80
2018-12-20T07:00:57.657Z,0.80
2018-12-20T07:03:26.321Z,0.80
2018-12-20T07:05:54.881Z,0.80
2018-12-20T07:08:23.414Z,0.80
2018-12-20T07:10:52.226Z,0.80
2018-12-20T07:13:20.766Z,0.80
2018-12-20T07:15:49.357Z,0.80
2018-12-20T07:18:17.933Z,0.80
2018-12-20T07:20:46.485Z,0.80
2018-12-20T07:23:15.121Z,0.80
2018-12-20T07:25:43.668Z,0.80
2018-12-20T07:28:12.253Z,0.80
2018-12-20T07:30:40.933Z,0.80
2018-12-20T07:33:09.465Z,0.80
2018-12-20T07:35:38.029Z,0.80
2018-12-20T07:38:06.802Z,0.80
2018-12-20T07:40:35.381Z,0.70
2018-12-20T07:43:03.910Z,0.70
2018-12-20T07:45:32.440Z,0.70
2018-12-20T07:48:00.988Z,0.70
2018-12-20T07:50:29.552Z,0.70
2018-12-20T07:52:58.073Z,0.80
2018-12-20T07:55:26.588Z,0.70
2018-12-20T07:57:55.128Z,0.80
2018-12-20T08:00:23.668Z,0.70
2018-12-20T08:02:52.197Z,0.70
2018-12-20T08:05:20.728Z,0.70
2018-12-20T08:07:49.980Z,0.70
2018-12-20T08:10:18.544Z,0.80
2018-12-20T08:12:47.084Z,0.70
2018-12-20T08:15:15.632Z,0.70
2018-12-20T08:17:44.224Z,0.50
2018-12-20T08:20:12.788Z,0.50
2018-12-20T08:22:41.328Z,0.60
2018-12-20T08:25:09.909Z,0.60
2018-12-20T08:27:38.488Z,0.70
2018-12-20T08:30:07.992Z,0.70
2018-12-20T08:32:36.555Z,0.80
2018-12-20T08:35:05.148Z,0.70
2018-12-20T08:37:33.695Z,0.80
2018-12-20T08:40:02.372Z,0.80
2018-12-20T08:42:30.936Z,0.80
2018-12-20T08:44:59.454Z,0.90
2018-12-20T08:47:28.061Z,0.90
2018-12-20T08:49:56.608Z,0.90
2018-12-20T08:52:25.173Z,1.00
2018-12-20T08:54:53.749Z,1.00
2018-12-20T08:57:22.500Z,1.00
2018-12-20T08:59:51.044Z,1.00
2018-12-20T09:02:19.627Z,1.10
2018-12-20T09:04:48.711Z,1.10
2018-12-20T09:07:17.267Z,1.10
2018-12-20T09:09:45.787Z,1.10
2018-12-20T09:12:14.319Z,1.00
2018-12-20T09:14:42.896Z,1.00
2018-12-20T09:17:11.467Z,1.10
2018-12-20T09:19:40.003Z,1.10
2018-12-20T09:22:08.543Z,1.10
2018-12-20T09:24:37.091Z,1.20
2018-12-20T09:27:05.664Z,1.20
2018-12-20T09:29:34.216Z,1.20
2018-12-20T09:32:02.817Z,1.20
2018-12-20T09:34:31.491Z,1.20
2018-12-20T09:37:00.747Z,1.30
2018-12-20T09:39:29.439Z,1.30
2018-12-20T09:41:58.010Z,1.30
2018-12-20T09:44:26.607Z,1.30
2018-12-20T09:46:59.404Z,1.30
2018-12-20T09:49:28.067Z,1.30
2018-12-20T09:51:56.631Z,1.20
2018-12-20T09:54:25.207Z,1.20
2018-12-20T09:56:53.792Z,1.20
2018-12-20T09:59:22.315Z,1.20
2018-12-20T10:01:50.850Z,1.20
2018-12-20T10:04:19.383Z,1.20
2018-12-20T10:06:47.910Z,1.10
2018-12-20T10:09:16.567Z,1.10
2018-12-20T10:11:45.123Z,1.10
2018-12-20T10:14:13.679Z,1.20
2018-12-20T10:16:42.251Z,1.20
2018-12-20T10:19:10.802Z,1.20
2018-12-20T10:21:39.506Z,1.10
2018-12-20T10:24:08.127Z,1.10
2018-12-20T10:26:36.710Z,1.10
2018-12-20T10:29:05.279Z,1.10
2018-12-20T10:31:33.818Z,1.10
2018-12-20T10:34:02.419Z,1.10
2018-12-20T10:36:30.978Z,1.10
2018-12-20T10:38:59.494Z,1.00
2018-12-20T10:41:28.022Z,0.90
2018-12-20T10:43:56.591Z,0.90
2018-12-20T10:46:25.152Z,1.10
2018-12-20T10:48:53.717Z,1.00
2018-12-20T10:51:22.258Z,1.00
2018-12-20T10:53:50.906Z,1.10
2018-12-20T10:56:19.490Z,1.10
2018-12-20T10:58:48.050Z,1.10
2018-12-20T11:03:28.869Z,1.10
2018-12-20T11:06:00.919Z,1.00
2018-12-20T11:08:30.309Z,1.00
2018-12-20T11:11:04.986Z,1.00
2018-12-20T11:13:33.569Z,1.00
2018-12-20T11:16:02.238Z,0.90
2018-12-20T11:18:30.809Z,1.00
2018-12-20T11:20:59.577Z,1.00
2018-12-20T11:23:28.208Z,1.10
2018-12-20T11:25:56.797Z,1.10
2018-12-20T11:28:25.353Z,1.00
2018-12-20T11:30:53.889Z,1.10
2018-12-20T11:33:22.517Z,1.00
2018-12-20T11:35:51.094Z,1.00
2018-12-20T11:38:19.641Z,1.10
2018-12-20T11:40:48.181Z,1.10
2018-12-20T11:43:16.722Z,1.10
2018-12-20T11:45:45.265Z,1.20
2018-12-20T11:48:13.797Z,1.10
2018-12-20T11:50:42.325Z,1.10
2018-12-20T11:53:10.895Z,1.20
2018-12-20T11:55:39.461Z,1.20
2018-12-20T11:58:08.017Z,1.20
2018-12-20T12:00:37.134Z,1.20
2018-12-20T12:03:06.017Z,1.20
2018-12-20T12:05:34.559Z,1.30
2018-12-20T12:08:03.141Z,1.30
2018-12-20T12:10:31.677Z,1.30
2018-12-20T12:13:00.216Z,1.40
2018-12-20T12:15:28.761Z,1.40
2018-12-20T12:17:57.288Z,1.40
2018-12-20T12:20:26.808Z,1.40
2018-12-20T12:22:55.466Z,1.50
2018-12-20T12:25:24.120Z,1.50
2018-12-20T12:27:52.652Z,1.50
2018-12-20T12:30:21.193Z,1.50
2018-12-20T12:32:49.752Z,1.50
2018-12-20T12:35:18.421Z,1.50
2018-12-20T12:37:46.964Z,1.40
2018-12-20T12:42:50.273Z,1.40
2018-12-20T12:45:18.844Z,1.50
2018-12-20T12:47:52.848Z,1.50
2018-12-20T12:50:21.395Z,1.50
2018-12-20T12:52:49.952Z,1.40
2018-12-20T12:55:18.499Z,1.50
2018-12-20T12:57:47.056Z,1.50
2018-12-20T13:00:20.624Z,1.50
2018-12-20T13:02:49.220Z,1.50
2018-12-20T13:05:18.164Z,1.50
2018-12-20T13:07:46.695Z,1.40
2018-12-20T13:10:15.279Z,1.40
2018-12-20T13:12:43.815Z,1.40
2018-12-20T13:15:12.523Z,1.50
2018-12-20T13:17:41.044Z,1.50
2018-12-20T13:20:10.683Z,1.50
2018-12-20T13:22:39.223Z,1.50
2018-12-20T13:25:08.387Z,1.50
2018-12-20T13:27:36.927Z,1.60
2018-12-20T13:30:09.496Z,1.50
2018-12-20T13:32:38.071Z,1.50
2018-12-20T13:35:06.583Z,1.50
2018-12-20T13:37:35.255Z,1.60
2018-12-20T13:40:04.323Z,1.60
2018-12-20T13:42:33.504Z,1.50
2018-12-20T13:45:02.059Z,1.50
2018-12-20T13:47:30.665Z,1.50
2018-12-20T13:49:59.218Z,1.50
2018-12-20T13:52:27.746Z,1.50
2018-12-20T13:54:56.261Z,1.60
2018-12-20T13:57:24.786Z,1.50
2018-12-20T13:59:53.338Z,1.60
2018-12-20T14:02:21.873Z,1.50
2018-12-20T14:04:50.428Z,1.50
2018-12-20T14:07:19.105Z,1.50
2018-12-20T14:09:47.657Z,1.50
2018-12-20T14:12:16.221Z,1.50
2018-12-20T14:14:44.765Z,1.50
2018-12-20T14:17:13.305Z,1.40
2018-12-20T14:19:41.852Z,1.40
2018-12-20T14:22:10.510Z,1.40
2018-12-20T14:24:39.048Z,1.30
2018-12-20T14:27:08.457Z,1.30
2018-12-20T14:29:37.040Z,1.30
2018-12-20T14:32:06.738Z,1.30
2018-12-20T14:34:35.536Z,1.30
2018-12-20T14:37:04.136Z,1.20
2018-12-20T14:39:32.686Z,1.10
2018-12-20T14:42:01.280Z,1.10
2018-12-20T14:44:29.852Z,1.10
2018-12-20T14:46:58.472Z,1.10
2018-12-20T14:49:27.079Z,1.10
2018-12-20T14:51:55.640Z,1.10
2018-12-20T14:54:24.415Z,1.10
2018-12-20T14:56:52.987Z,1.10
2018-12-20T14:59:21.586Z,1.00
2018-12-20T15:01:50.167Z,1.10
2018-12-20T15:04:18.779Z,1.10
2018-12-20T15:06:47.311Z,1.10
2018-12-20T15:09:15.827Z,1.10
2018-12-20T15:11:44.346Z,1.10
2018-12-20T15:14:12.887Z,1.00
2018-12-20T15:16:41.410Z,1.00
2018-12-20T15:19:09.947Z,1.00
2018-12-20T15:21:38.466Z,1.00
2018-12-20T15:24:07.274Z,1.00
2018-12-20T15:26:35.796Z,1.00
2018-12-20T15:29:04.318Z,1.10
2018-12-20T15:31:32.856Z,1.10
2018-12-20T15:34:01.374Z,1.00
2018-12-20T15:36:29.934Z,1.00
2018-12-20T15:38:58.444Z,1.00
2018-12-20T15:41:26.991Z,1.00
2018-12-20T15:43:55.530Z,1.10
2018-12-20T15:46:24.054Z,1.00
2018-12-20T15:48:56.798Z,1.00
2018-12-20T15:51:25.348Z,1.10
2018-12-20T15:53:53.856Z,1.10
2018-12-20T15:56:22.390Z,1.10
2018-12-20T15:58:50.946Z,1.00
2018-12-20T16:01:19.454Z,0.90
2018-12-20T16:03:48.651Z,0.90
2018-12-20T16:06:17.170Z,1.00
2018-12-20T16:08:46.135Z,0.90
2018-12-20T16:11:14.802Z,0.90
2018-12-20T16:13:43.370Z,0.90
2018-12-20T16:16:12.090Z,0.80
2018-12-20T16:18:40.651Z,0.90
2018-12-20T16:21:09.334Z,0.90
2018-12-20T16:23:37.870Z,0.90
2018-12-20T16:26:06.438Z,0.90
2018-12-20T16:28:34.998Z,0.90
2018-12-20T16:31:03.542Z,0.90
2018-12-20T16:33:32.112Z,0.80
2018-12-20T16:36:00.634Z,0.80
2018-12-20T16:38:29.141Z,0.80
2018-12-20T16:40:57.693Z,0.90
2018-12-20T16:43:26.221Z,0.90
2018-12-20T16:45:55.581Z,0.90
2018-12-20T16:48:24.179Z,0.80
2018-12-20T16:50:53.330Z,0.80
2018-12-20T16:53:21.909Z,0.80
2018-12-20T16:55:50.477Z,0.90
2018-12-20T16:58:19.049Z,0.90
2018-12-20T17:00:47.734Z,0.90
2018-12-20T17:03:16.288Z,0.90
2018-12-20T17:05:44.836Z,0.90
2018-12-20T17:08:13.389Z,1.00
2018-12-20T17:10:41.944Z,1.00
2018-12-20T17:13:10.500Z,1.00
2018-12-20T17:15:39.083Z,1.00
2018-12-20T17:18:07.672Z,1.00
2018-12-20T17:20:36.244Z,1.00
2018-12-20T17:23:04.781Z,0.90
2018-12-20T17:25:34.112Z,0.90
2018-12-20T17:28:09.074Z,0.90
2018-12-20T17:30:37.593Z,0.90
2018-12-20T17:33:06.128Z,0.90
2018-12-20T17:35:34.676Z,0.90
2018-12-20T17:38:03.216Z,1.00
2018-12-20T17:40:31.768Z,1.00
2018-12-20T17:43:00.325Z,1.00
2018-12-20T17:45:28.900Z,1.00
2018-12-20T17:47:57.456Z,0.90
2018-12-20T17:50:25.976Z,0.80
2018-12-20T17:52:54.476Z,0.90
2018-12-20T17:55:23.037Z,0.80
2018-12-20T17:57:51.837Z,0.80
2018-12-20T18:00:20.523Z,0.80
2018-12-20T18:02:49.034Z,0.80
2018-12-20T18:05:17.639Z,0.80
2018-12-20T18:07:46.180Z,0.90
2018-12-20T18:10:14.708Z,0.90
2018-12-20T18:12:43.243Z,0.90
2018-12-20T18:15:12.356Z,1.00
2018-12-20T18:17:40.899Z,1.00
2018-12-20T18:20:10.711Z,0.90
2018-12-20T18:22:39.272Z,0.90
2018-12-20T18:25:08.473Z,0.90
2018-12-20T18:27:37.119Z,0.90
2018-12-20T18:30:08.747Z,0.90
2018-12-20T18:32:37.283Z,0.90
2018-12-20T18:35:05.980Z,0.70
2018-12-20T18:37:34.755Z,0.70
2018-12-20T18:40:03.443Z,0.80
2018-12-20T18:42:32.007Z,0.80
2018-12-20T18:45:00.716Z,0.80
2018-12-20T18:47:29.251Z,0.80
2018-12-20T18:49:57.783Z,0.80
2018-12-20T18:52:26.328Z,0.80
2018-12-20T18:54:55.114Z,0.80
2018-12-20T18:57:23.639Z,0.80
2018-12-20T18:59:52.210Z,0.90
2018-12-20T19:02:20.748Z,0.80
2018-12-20T19:04:49.606Z,0.80
2018-12-20T19:07:18.133Z,0.80
2018-12-20T19:09:46.693Z,0.90
2018-12-20T19:12:15.213Z,0.90
2018-12-20T19:14:43.777Z,0.80
2018-12-20T19:17:12.359Z,0.80
2018-12-20T19:19:40.921Z,0.80
2018-12-20T19:22:09.477Z,0.90
2018-12-20T19:24:38.007Z,0.90
2018-12-20T19:27:06.561Z,0.90
2018-12-20T19:29:35.121Z,0.90
2018-12-20T19:32:03.673Z,0.90
2018-12-20T19:34:32.581Z,0.90
2018-12-20T19:37:01.117Z,1.00
2018-12-20T19:39:30.238Z,1.00
2018-12-20T19:42:03.012Z,1.00
2018-12-20T19:44:31.583Z,1.10
2018-12-20T19:47:00.127Z,1.00
2018-12-20T19:49:28.652Z,0.90
2018-12-20T19:51:57.168Z,0.90
2018-12-20T19:54:25.724Z,0.90
2018-12-20T19:56:54.276Z,0.90
2018-12-20T19:59:23.264Z,1.00
2018-12-20T20:01:51.940Z,1.00
2018-12-20T20:04:20.459Z,0.90
2018-12-20T20:06:49.043Z,0.90
2018-12-20T20:09:18.456Z,1.00
2018-12-20T20:11:47.037Z,0.90
2018-12-20T20:14:16.271Z,0.90
2018-12-20T20:16:50.645Z,0.90
2018-12-20T20:19:15.494Z,0.90
2018-12-20T20:21:44.021Z,0.80
2018-12-20T20:24:12.559Z,0.90
2018-12-20T20:26:41.081Z,0.90
2018-12-20T20:29:09.601Z,0.90
2018-12-20T20:31:38.257Z,0.90
2018-12-20T20:34:06.786Z,0.90
2018-12-20T20:36:35.326Z,0.90
2018-12-20T20:39:06.121Z,0.90
2018-12-20T20:41:35.210Z,1.00
2018-12-20T20:44:03.961Z,1.00
2018-12-20T20:46:32.473Z,1.00
2018-12-20T20:49:01.029Z,1.00
2018-12-20T20:51:29.561Z,0.90
2018-12-20T20:53:58.105Z,0.90
2018-12-20T20:56:26.621Z,0.90
2018-12-20T20:58:55.205Z,1.00
2018-12-20T21:01:23.741Z,0.90
2018-12-20T21:03:52.269Z,1.00
2018-12-20T21:06:21.661Z,1.00
2018-12-20T21:08:50.204Z,1.00
2018-12-20T21:11:18.756Z,1.00
2018-12-20T21:13:48.036Z,1.00
2018-12-20T21:16:16.595Z,1.00
2018-12-20T21:18:45.138Z,1.10
2018-12-20T21:21:13.770Z,1.10
2018-12-20T21:23:42.302Z,1.10
2018-12-20T21:26:10.811Z,1.00
2018-12-20T21:28:39.363Z,1.00
2018-12-20T21:31:07.890Z,1.10
2018-12-20T21:33:36.458Z,1.00
2018-12-20T21:36:05.094Z,1.00
2018-12-20T21:38:33.610Z,1.10
2018-12-20T21:41:02.163Z,1.00
2018-12-20T21:43:30.705Z,1.00
2018-12-20T21:45:59.214Z,1.00
2018-12-20T21:48:27.770Z,1.10
2018-12-20T21:50:56.318Z,1.10
2018-12-20T21:53:24.878Z,1.00
2018-12-20T21:55:53.414Z,1.00
2018-12-20T21:58:21.953Z,1.00
2018-12-20T22:00:50.486Z,1.10
2018-12-20T22:03:19.029Z,1.00
2018-12-20T22:05:47.581Z,1.00
2018-12-20T22:08:16.310Z,1.00
2018-12-20T22:10:44.869Z,1.00
2018-12-20T22:13:13.369Z,1.10
2018-12-20T22:15:41.894Z,1.10
2018-12-20T22:18:10.407Z,1.10
2018-12-20T22:20:47.080Z,1.10
2018-12-20T22:23:09.533Z,1.10
2018-12-20T22:25:38.102Z,1.10
2018-12-20T22:28:06.630Z,1.10
2018-12-20T22:30:35.342Z,1.10
2018-12-20T22:33:03.898Z,1.10
2018-12-20T22:35:32.445Z,1.10
2018-12-20T22:38:01.726Z,1.20
2018-12-20T22:40:30.374Z,1.10
2018-12-20T22:42:58.952Z,1.20
2018-12-20T22:45:27.485Z,1.20
2018-12-20T22:47:56.042Z,1.20
2018-12-20T22:50:24.729Z,1.30
2018-12-20T22:52:53.254Z,1.30
2018-12-20T22:55:21.822Z,1.30
2018-12-20T22:57:50.374Z,1.30
2018-12-20T23:00:19.049Z,1.20
2018-12-20T23:02:47.688Z,1.20
2018-12-20T23:05:16.281Z,1.20
2018-12-20T23:07:44.817Z,1.30
2018-12-20T23:10:13.351Z,1.20
2018-12-20T23:12:41.877Z,1.30
2018-12-20T23:15:10.677Z,1.30
2018-12-20T23:17:39.281Z,1.30
2018-12-20T23:20:08.529Z,1.30
2018-12-20T23:22:37.193Z,1.30
2018-12-20T23:25:05.850Z,1.30
2018-12-20T23:27:34.409Z,1.30
2018-12-20T23:30:02.929Z,1.30
2018-12-20T23:32:31.473Z,1.30
2018-12-20T23:35:00.300Z,1.30
2018-12-20T23:37:28.850Z,1.30
2018-12-20T23:39:57.376Z,1.30
2018-12-20T23:42:25.884Z,1.40
2018-12-20T23:44:54.836Z,1.40
2018-12-20T23:47:23.502Z,1.30
2018-12-20T23:49:52.171Z,1.20
2018-12-20T23:52:20.740Z,1.30
2018-12-20T23:54:49.984Z,1.20
2018-12-20T23:57:18.509Z,1.20
2018-12-20T23:59:47.052Z,1.30
